createdAt,value
2019-03-03T00:00:48.819Z,982.48
2019-03-03T00:01:48.829Z,982.42
2019-03-03T00:02:48.796Z,982.46
2019-03-03T00:03:48.787Z,982.41
2019-03-03T00:04:48.775Z,982.43
2019-03-03T00:05:48.781Z,982.38
2019-03-03T00:06:48.755Z,982.38
2019-03-03T00:07:48.744Z,982.40
2019-03-03T00:08:48.735Z,982.43
2019-03-03T00:09:48.723Z,982.41
2019-03-03T00:10:48.737Z,982.42
2019-03-03T00:11:48.724Z,982.36
2019-03-03T00:12:48.715Z,982.49
2019-03-03T00:13:48.695Z,982.45
2019-03-03T00:14:48.664Z,982.47
2019-03-03T00:15:48.670Z,982.42
2019-03-03T00:16:48.644Z,982.50
2019-03-03T00:17:48.651Z,982.46
2019-03-03T00:18:48.636Z,982.49
2019-03-03T00:19:48.645Z,982.39
2019-03-03T00:20:48.602Z,982.43
2019-03-03T00:21:48.600Z,982.42
2019-03-03T00:22:48.587Z,982.39
2019-03-03T00:23:48.603Z,982.46
2019-03-03T00:24:48.573Z,982.36
2019-03-03T00:25:48.552Z,982.38
2019-03-03T00:26:48.545Z,982.42
2019-03-03T00:27:48.528Z,982.42
2019-03-03T00:28:48.516Z,982.40
2019-03-03T00:29:48.526Z,982.40
2019-03-03T00:30:48.493Z,982.40
2019-03-03T00:31:48.486Z,982.38
2019-03-03T00:32:48.477Z,982.29
2019-03-03T00:33:48.461Z,982.32
2019-03-03T00:34:48.460Z,982.30
2019-03-03T00:35:48.464Z,982.28
2019-03-03T00:36:48.432Z,982.25
2019-03-03T00:37:48.420Z,982.28
2019-03-03T00:38:48.422Z,982.27
2019-03-03T00:39:48.434Z,982.24
2019-03-03T00:40:48.387Z,982.25
2019-03-03T00:41:48.397Z,982.25
2019-03-03T00:42:48.369Z,982.24
2019-03-03T00:43:48.365Z,982.23
2019-03-03T00:44:48.345Z,982.24
2019-03-03T00:45:48.342Z,982.23
2019-03-03T00:46:48.326Z,982.22
2019-03-03T00:47:48.331Z,982.29
2019-03-03T00:48:48.310Z,982.21
2019-03-03T00:49:48.287Z,982.26
2019-03-03T00:50:48.281Z,982.26
2019-03-03T00:51:48.278Z,982.24
2019-03-03T00:52:48.268Z,982.23
2019-03-03T00:53:48.285Z,982.14
2019-03-03T00:54:48.240Z,982.19
2019-03-03T00:55:48.233Z,982.04
2019-03-03T00:56:48.216Z,982.04
2019-03-03T00:57:48.207Z,982.00
2019-03-03T00:58:48.195Z,982.02
2019-03-03T00:59:48.203Z,982.07
2019-03-03T01:00:48.172Z,981.98
2019-03-03T01:01:48.166Z,981.99
2019-03-03T01:02:48.172Z,981.93
2019-03-03T01:03:48.139Z,981.96
2019-03-03T01:04:48.130Z,981.96
2019-03-03T01:05:48.143Z,981.95
2019-03-03T01:06:48.139Z,981.95
2019-03-03T01:07:48.101Z,981.98
2019-03-03T01:08:48.088Z,981.94
2019-03-03T01:09:48.075Z,982.00
2019-03-03T01:10:48.066Z,981.94
2019-03-03T01:11:48.079Z,981.87
2019-03-03T01:12:48.040Z,981.89
2019-03-03T01:13:48.044Z,981.86
2019-03-03T01:14:48.033Z,981.88
2019-03-03T01:15:48.014Z,981.91
2019-03-03T01:16:48.005Z,981.91
2019-03-03T01:17:48.012Z,981.91
2019-03-03T01:18:47.992Z,981.95
2019-03-03T01:19:47.970Z,981.93
2019-03-03T01:20:47.960Z,982.07
2019-03-03T01:21:47.967Z,982.04
2019-03-03T01:22:47.943Z,981.97
2019-03-03T01:23:47.995Z,982.01
2019-03-03T01:24:47.921Z,982.03
2019-03-03T01:25:47.906Z,982.02
2019-03-03T01:26:47.896Z,982.06
2019-03-03T01:27:47.909Z,982.19
2019-03-03T01:28:47.877Z,982.13
2019-03-03T01:29:47.891Z,982.12
2019-03-03T01:30:47.852Z,982.14
2019-03-03T01:31:47.838Z,982.18
2019-03-03T01:32:47.851Z,982.17
2019-03-03T01:33:47.829Z,982.20
2019-03-03T01:34:47.809Z,982.20
2019-03-03T01:35:47.819Z,982.23
2019-03-03T01:36:47.789Z,982.20
2019-03-03T01:37:47.774Z,982.22
2019-03-03T01:38:47.768Z,982.21
2019-03-03T01:39:47.757Z,982.20
2019-03-03T01:40:47.768Z,982.21
2019-03-03T01:41:47.753Z,982.28
2019-03-03T01:42:47.732Z,982.24
2019-03-03T01:43:47.715Z,982.24
2019-03-03T01:44:47.702Z,982.23
2019-03-03T01:45:47.702Z,982.17
2019-03-03T01:46:47.683Z,982.17
2019-03-03T01:47:47.693Z,982.22
2019-03-03T01:48:47.668Z,982.26
2019-03-03T01:49:47.654Z,982.16
2019-03-03T01:50:47.654Z,982.15
2019-03-03T01:51:47.651Z,982.19
2019-03-03T01:52:47.619Z,982.21
2019-03-03T01:53:47.625Z,982.18
2019-03-03T01:54:47.606Z,982.18
2019-03-03T01:55:47.595Z,982.18
2019-03-03T01:56:47.584Z,982.13
2019-03-03T01:57:47.587Z,982.08
2019-03-03T01:58:47.562Z,982.10
2019-03-03T01:59:47.564Z,982.16
2019-03-03T02:00:47.537Z,982.12
2019-03-03T02:01:47.523Z,982.06
2019-03-03T02:02:47.518Z,982.03
2019-03-03T02:03:47.632Z,982.02
2019-03-03T02:04:47.495Z,982.04
2019-03-03T02:05:47.502Z,981.98
2019-03-03T02:06:47.476Z,982.03
2019-03-03T02:07:47.461Z,981.97
2019-03-03T02:08:47.453Z,981.93
2019-03-03T02:09:47.459Z,981.92
2019-03-03T02:10:47.431Z,981.91
2019-03-03T02:11:47.449Z,981.90
2019-03-03T02:12:47.408Z,981.81
2019-03-03T02:13:47.421Z,981.92
2019-03-03T02:14:47.392Z,981.89
2019-03-03T02:15:47.393Z,981.80
2019-03-03T02:16:47.370Z,981.84
2019-03-03T02:17:47.373Z,981.78
2019-03-03T02:18:47.351Z,981.72
2019-03-03T02:19:47.348Z,981.76
2019-03-03T02:20:47.320Z,981.76
2019-03-03T02:22:38.200Z,981.71
2019-03-03T02:23:38.206Z,981.71
2019-03-03T02:24:38.180Z,981.61
2019-03-03T02:25:38.171Z,981.73
2019-03-03T02:26:38.158Z,981.69
2019-03-03T02:27:38.146Z,981.69
2019-03-03T02:28:38.137Z,981.70
2019-03-03T02:29:38.141Z,981.67
2019-03-03T02:30:38.119Z,981.70
2019-03-03T02:31:38.109Z,981.77
2019-03-03T02:32:38.098Z,981.71
2019-03-03T02:33:38.087Z,981.73
2019-03-03T02:34:38.076Z,981.74
2019-03-03T02:35:38.080Z,981.76
2019-03-03T02:36:38.052Z,981.75
2019-03-03T02:37:38.042Z,981.68
2019-03-03T02:38:38.030Z,981.69
2019-03-03T02:39:38.024Z,981.69
2019-03-03T02:40:38.013Z,981.68
2019-03-03T02:41:38.008Z,981.71
2019-03-03T02:42:37.989Z,981.67
2019-03-03T02:43:37.978Z,981.64
2019-03-03T02:44:37.965Z,981.69
2019-03-03T02:45:37.954Z,981.70
2019-03-03T02:46:37.946Z,981.64
2019-03-03T02:47:37.963Z,981.67
2019-03-03T02:48:37.923Z,981.67
2019-03-03T02:49:37.911Z,981.61
2019-03-03T02:50:37.898Z,981.61
2019-03-03T02:51:37.894Z,981.59
2019-03-03T02:52:37.880Z,981.60
2019-03-03T02:53:37.885Z,981.58
2019-03-03T02:54:37.856Z,981.53
2019-03-03T02:55:37.843Z,981.52
2019-03-03T02:56:37.835Z,981.51
2019-03-03T02:57:37.822Z,981.50
2019-03-03T02:58:37.812Z,981.48
2019-03-03T02:59:37.843Z,981.52
2019-03-03T03:00:37.788Z,981.56
2019-03-03T03:01:37.786Z,981.55
2019-03-03T03:02:37.777Z,981.55
2019-03-03T03:03:37.762Z,981.53
2019-03-03T03:04:37.750Z,981.53
2019-03-03T03:05:37.751Z,981.50
2019-03-03T03:06:37.739Z,981.51
2019-03-03T03:07:37.716Z,981.56
2019-03-03T03:08:37.703Z,981.51
2019-03-03T03:09:37.693Z,981.49
2019-03-03T03:10:37.681Z,981.56
2019-03-03T03:11:37.703Z,981.53
2019-03-03T03:12:37.661Z,981.51
2019-03-03T03:13:37.650Z,981.50
2019-03-03T03:14:37.640Z,981.55
2019-03-03T03:15:40.390Z,981.51
2019-03-03T03:16:37.623Z,981.51
2019-03-03T03:17:37.624Z,981.49
2019-03-03T03:18:37.601Z,981.46
2019-03-03T03:19:37.593Z,981.50
2019-03-03T03:20:37.579Z,981.54
2019-03-03T03:21:37.565Z,981.48
2019-03-03T03:22:37.557Z,981.51
2019-03-03T03:23:37.573Z,981.50
2019-03-03T03:24:37.533Z,981.53
2019-03-03T03:25:37.533Z,981.50
2019-03-03T03:26:37.515Z,981.51
2019-03-03T03:27:37.501Z,981.50
2019-03-03T03:28:37.491Z,981.50
2019-03-03T03:29:37.498Z,981.53
2019-03-03T03:30:37.470Z,981.49
2019-03-03T03:31:37.458Z,981.48
2019-03-03T03:32:37.452Z,981.49
2019-03-03T03:33:37.442Z,981.45
2019-03-03T03:34:37.431Z,981.46
2019-03-03T03:35:37.433Z,981.44
2019-03-03T03:36:37.416Z,981.46
2019-03-03T03:37:37.842Z,981.45
2019-03-03T03:38:37.386Z,981.43
2019-03-03T03:39:37.380Z,981.47
2019-03-03T03:40:37.365Z,981.46
2019-03-03T03:41:37.374Z,981.39
2019-03-03T03:42:37.342Z,981.44
2019-03-03T03:43:37.342Z,981.50
2019-03-03T03:44:37.320Z,981.49
2019-03-03T03:45:37.311Z,981.48
2019-03-03T03:46:37.307Z,981.52
2019-03-03T03:47:37.342Z,981.45
2019-03-03T03:48:37.283Z,981.47
2019-03-03T03:49:37.268Z,981.48
2019-03-03T03:50:37.256Z,981.46
2019-03-03T03:51:37.251Z,981.43
2019-03-03T03:52:37.237Z,981.41
2019-03-03T03:53:37.251Z,981.40
2019-03-03T03:54:37.215Z,981.34
2019-03-03T03:55:37.204Z,981.34
2019-03-03T03:56:37.197Z,981.43
2019-03-03T03:57:37.186Z,981.30
2019-03-03T03:58:37.177Z,981.33
2019-03-03T03:59:37.195Z,981.31
2019-03-03T04:00:37.177Z,981.34
2019-03-03T04:01:37.142Z,981.31
2019-03-03T04:02:37.134Z,981.38
2019-03-03T04:03:37.123Z,981.42
2019-03-03T04:04:37.140Z,981.42
2019-03-03T04:05:37.141Z,981.32
2019-03-03T04:06:37.091Z,981.39
2019-03-03T04:07:37.079Z,981.45
2019-03-03T04:08:37.071Z,981.41
2019-03-03T04:09:37.065Z,981.36
2019-03-03T04:10:37.049Z,981.38
2019-03-03T04:11:37.131Z,981.35
2019-03-03T04:12:37.027Z,981.44
2019-03-03T04:13:37.019Z,981.42
2019-03-03T04:14:37.031Z,981.36
2019-03-03T04:15:36.994Z,981.39
2019-03-03T04:16:36.991Z,981.36
2019-03-03T04:17:36.992Z,981.39
2019-03-03T04:18:36.976Z,981.46
2019-03-03T04:19:36.953Z,981.39
2019-03-03T04:20:36.956Z,981.34
2019-03-03T04:21:36.934Z,981.43
2019-03-03T04:22:36.923Z,981.31
2019-03-03T04:23:36.949Z,981.43
2019-03-03T04:24:36.907Z,981.38
2019-03-03T04:25:36.891Z,981.43
2019-03-03T04:26:36.881Z,981.42
2019-03-03T04:27:36.872Z,981.37
2019-03-03T04:28:36.871Z,981.41
2019-03-03T04:29:36.878Z,981.41
2019-03-03T04:30:36.839Z,981.45
2019-03-03T04:31:36.833Z,981.35
2019-03-03T04:32:36.817Z,981.52
2019-03-03T04:33:36.810Z,981.45
2019-03-03T04:34:36.802Z,981.52
2019-03-03T04:35:36.827Z,981.50
2019-03-03T04:36:36.778Z,981.54
2019-03-03T04:37:36.766Z,981.52
2019-03-03T04:38:36.754Z,981.42
2019-03-03T04:39:36.741Z,981.42
2019-03-03T04:40:36.736Z,981.48
2019-03-03T04:41:36.741Z,981.47
2019-03-03T04:42:36.713Z,981.47
2019-03-03T04:43:36.700Z,981.42
2019-03-03T04:44:36.690Z,981.44
2019-03-03T04:45:36.677Z,981.43
2019-03-03T04:46:36.675Z,981.38
2019-03-03T04:47:36.680Z,981.36
2019-03-03T04:48:36.653Z,981.33
2019-03-03T04:49:36.639Z,981.28
2019-03-03T04:50:36.629Z,981.27
2019-03-03T04:51:36.616Z,981.22
2019-03-03T04:52:36.609Z,981.19
2019-03-03T04:53:36.682Z,981.26
2019-03-03T04:54:36.588Z,981.23
2019-03-03T04:55:36.575Z,981.25
2019-03-03T04:56:36.565Z,981.40
2019-03-03T04:57:36.555Z,981.35
2019-03-03T04:58:36.542Z,981.33
2019-03-03T04:59:36.549Z,981.25
2019-03-03T05:00:36.526Z,981.39
2019-03-03T05:01:36.507Z,981.43
2019-03-03T05:02:36.503Z,981.42
2019-03-03T05:03:36.491Z,981.42
2019-03-03T05:04:36.475Z,981.43
2019-03-03T05:05:36.482Z,981.40
2019-03-03T05:06:36.458Z,981.37
2019-03-03T05:07:36.446Z,981.35
2019-03-03T05:08:36.437Z,981.35
2019-03-03T05:09:36.426Z,981.27
2019-03-03T05:10:36.414Z,981.28
2019-03-03T05:11:36.420Z,981.28
2019-03-03T05:12:36.395Z,981.31
2019-03-03T05:13:36.388Z,981.28
2019-03-03T05:14:36.376Z,981.33
2019-03-03T05:15:36.366Z,981.39
2019-03-03T05:16:36.352Z,981.36
2019-03-03T05:17:36.378Z,981.32
2019-03-03T05:18:36.330Z,981.30
2019-03-03T05:19:36.320Z,981.29
2019-03-03T05:20:36.307Z,981.25
2019-03-03T05:21:36.298Z,981.33
2019-03-03T05:22:36.294Z,981.18
2019-03-03T05:23:36.291Z,981.31
2019-03-03T05:24:36.269Z,981.27
2019-03-03T05:25:36.263Z,981.24
2019-03-03T05:26:36.243Z,981.26
2019-03-03T05:27:36.237Z,981.18
2019-03-03T05:28:36.225Z,981.22
2019-03-03T05:29:36.243Z,981.23
2019-03-03T05:30:36.201Z,981.27
2019-03-03T05:31:36.193Z,981.20
2019-03-03T05:32:36.180Z,981.26
2019-03-03T05:33:36.170Z,981.25
2019-03-03T05:34:36.160Z,981.27
2019-03-03T05:35:36.166Z,981.24
2019-03-03T05:36:36.143Z,981.24
2019-03-03T05:37:36.128Z,981.27
2019-03-03T05:38:36.118Z,981.26
2019-03-03T05:39:36.108Z,981.25
2019-03-03T05:40:36.095Z,981.27
2019-03-03T05:41:36.099Z,981.34
2019-03-03T05:42:36.079Z,981.28
2019-03-03T05:43:36.064Z,981.28
2019-03-03T05:44:36.057Z,981.25
2019-03-03T05:45:36.045Z,981.24
2019-03-03T05:46:36.034Z,981.23
2019-03-03T05:47:36.039Z,981.29
2019-03-03T05:48:36.013Z,981.25
2019-03-03T05:49:36.003Z,981.25
2019-03-03T05:50:35.990Z,981.29
2019-03-03T05:51:35.983Z,981.28
2019-03-03T05:52:35.970Z,981.30
2019-03-03T05:53:35.973Z,981.25
2019-03-03T05:54:35.945Z,981.25
2019-03-03T05:55:35.938Z,981.21
2019-03-03T05:56:35.926Z,981.22
2019-03-03T05:57:35.916Z,981.23
2019-03-03T05:58:35.910Z,981.30
2019-03-03T05:59:35.906Z,981.26
2019-03-03T06:00:35.884Z,981.28
2019-03-03T06:01:35.874Z,981.15
2019-03-03T06:02:35.865Z,981.17
2019-03-03T06:03:35.853Z,981.10
2019-03-03T06:04:35.842Z,981.13
2019-03-03T06:05:35.870Z,981.17
2019-03-03T06:06:35.824Z,981.11
2019-03-03T06:07:35.811Z,981.09
2019-03-03T06:08:35.800Z,981.08
2019-03-03T06:09:35.791Z,981.10
2019-03-03T06:10:35.784Z,981.14
2019-03-03T06:11:35.788Z,981.14
2019-03-03T06:12:35.761Z,981.23
2019-03-03T06:13:35.747Z,981.28
2019-03-03T06:14:35.735Z,981.17
2019-03-03T06:15:35.729Z,981.19
2019-03-03T06:16:35.715Z,981.24
2019-03-03T06:17:35.720Z,981.12
2019-03-03T06:18:35.693Z,981.16
2019-03-03T06:19:35.684Z,981.18
2019-03-03T06:20:35.674Z,981.24
2019-03-03T06:21:35.661Z,981.15
2019-03-03T06:22:35.652Z,981.15
2019-03-03T06:23:35.658Z,981.19
2019-03-03T06:24:35.639Z,981.14
2019-03-03T06:25:35.620Z,981.23
2019-03-03T06:26:35.615Z,981.22
2019-03-03T06:27:35.600Z,981.23
2019-03-03T06:28:35.591Z,981.18
2019-03-03T06:29:35.595Z,981.18
2019-03-03T06:30:35.568Z,981.15
2019-03-03T06:31:35.556Z,981.21
2019-03-03T06:32:35.547Z,981.25
2019-03-03T06:33:35.543Z,981.23
2019-03-03T06:34:35.524Z,981.22
2019-03-03T06:35:35.534Z,981.32
2019-03-03T06:36:35.509Z,981.29
2019-03-03T06:37:35.489Z,981.33
2019-03-03T06:38:35.487Z,981.33
2019-03-03T06:39:35.479Z,981.34
2019-03-03T06:40:35.466Z,981.36
2019-03-03T06:41:35.469Z,981.39
2019-03-03T06:42:35.444Z,981.37
2019-03-03T06:43:35.431Z,981.34
2019-03-03T06:44:35.429Z,981.30
2019-03-03T06:45:35.409Z,981.33
2019-03-03T06:46:35.399Z,981.32
2019-03-03T06:47:35.420Z,981.36
2019-03-03T06:48:35.374Z,981.31
2019-03-03T06:49:35.358Z,981.31
2019-03-03T06:50:35.355Z,981.38
2019-03-03T06:51:35.349Z,981.39
2019-03-03T06:52:35.332Z,981.38
2019-03-03T06:53:35.342Z,981.42
2019-03-03T06:54:35.313Z,981.35
2019-03-03T06:55:35.300Z,981.34
2019-03-03T06:56:35.291Z,981.33
2019-03-03T06:57:35.281Z,981.33
2019-03-03T06:58:35.271Z,981.29
2019-03-03T06:59:35.276Z,981.34
2019-03-03T07:00:35.248Z,981.34
2019-03-03T07:01:35.242Z,981.34
2019-03-03T07:02:35.226Z,981.34
2019-03-03T07:03:35.214Z,981.38
2019-03-03T07:04:35.208Z,981.50
2019-03-03T07:05:35.214Z,981.37
2019-03-03T07:06:35.188Z,981.41
2019-03-03T07:07:35.178Z,981.39
2019-03-03T07:08:35.451Z,981.44
2019-03-03T07:09:35.157Z,981.41
2019-03-03T07:10:35.147Z,981.40
2019-03-03T07:11:35.150Z,981.45
2019-03-03T07:12:35.131Z,981.43
2019-03-03T07:13:35.115Z,981.46
2019-03-03T07:14:35.116Z,981.42
2019-03-03T07:15:35.094Z,981.43
2019-03-03T07:16:35.080Z,981.45
2019-03-03T07:17:35.089Z,981.46
2019-03-03T07:18:35.057Z,981.47
2019-03-03T07:19:35.048Z,981.44
2019-03-03T07:20:35.044Z,981.44
2019-03-03T07:21:35.022Z,981.42
2019-03-03T07:22:35.012Z,981.44
2019-03-03T07:23:35.019Z,981.37
2019-03-03T07:24:34.994Z,981.34
2019-03-03T07:25:34.977Z,981.33
2019-03-03T07:26:34.971Z,981.25
2019-03-03T07:27:34.969Z,981.31
2019-03-03T07:28:34.958Z,981.26
2019-03-03T07:29:34.952Z,981.29
2019-03-03T07:30:34.929Z,981.31
2019-03-03T07:31:34.915Z,981.32
2019-03-03T07:32:34.904Z,981.33
2019-03-03T07:33:34.898Z,981.40
2019-03-03T07:34:34.889Z,981.37
2019-03-03T07:35:34.886Z,981.36
2019-03-03T07:36:34.864Z,981.36
2019-03-03T07:37:34.861Z,981.37
2019-03-03T07:38:34.841Z,981.40
2019-03-03T07:39:34.835Z,981.38
2019-03-03T07:40:34.818Z,981.42
2019-03-03T07:41:34.821Z,981.34
2019-03-03T07:42:34.800Z,981.37
2019-03-03T07:43:34.789Z,981.44
2019-03-03T07:44:34.777Z,981.40
2019-03-03T07:45:34.767Z,981.38
2019-03-03T07:46:34.757Z,981.47
2019-03-03T07:47:34.838Z,981.41
2019-03-03T07:48:34.733Z,981.44
2019-03-03T07:49:34.723Z,981.47
2019-03-03T07:50:34.711Z,981.45
2019-03-03T07:51:34.700Z,981.40
2019-03-03T07:52:34.691Z,981.38
2019-03-03T07:53:34.697Z,981.41
2019-03-03T07:54:34.669Z,981.47
2019-03-03T07:55:34.656Z,981.36
2019-03-03T07:56:34.649Z,981.36
2019-03-03T07:57:34.636Z,981.37
2019-03-03T07:58:34.624Z,981.46
2019-03-03T07:59:34.632Z,981.41
2019-03-03T08:00:34.605Z,981.44
2019-03-03T08:01:34.595Z,981.44
2019-03-03T08:02:34.586Z,981.38
2019-03-03T08:03:34.573Z,981.45
2019-03-03T08:04:34.564Z,981.36
2019-03-03T08:05:34.575Z,981.44
2019-03-03T08:06:34.546Z,981.39
2019-03-03T08:07:34.536Z,981.47
2019-03-03T08:08:34.528Z,981.40
2019-03-03T08:09:34.507Z,981.44
2019-03-03T08:10:34.495Z,981.49
2019-03-03T08:11:34.495Z,981.40
2019-03-03T08:12:34.475Z,981.39
2019-03-03T08:13:34.465Z,981.42
2019-03-03T08:14:34.454Z,981.40
2019-03-03T08:15:34.444Z,981.35
2019-03-03T08:16:34.433Z,981.37
2019-03-03T08:17:34.437Z,981.40
2019-03-03T08:18:34.412Z,981.44
2019-03-03T08:19:34.399Z,981.41
2019-03-03T08:20:34.394Z,981.37
2019-03-03T08:21:34.382Z,981.41
2019-03-03T08:22:41.421Z,981.36
2019-03-03T08:23:34.355Z,981.41
2019-03-03T08:24:34.345Z,981.36
2019-03-03T08:25:34.344Z,981.36
2019-03-03T08:26:34.324Z,981.38
2019-03-03T08:27:34.327Z,981.36
2019-03-03T08:28:34.326Z,981.33
2019-03-03T08:29:34.294Z,981.36
2019-03-03T08:30:34.295Z,981.30
2019-03-03T08:31:34.275Z,981.33
2019-03-03T08:32:34.262Z,981.39
2019-03-03T08:33:34.299Z,981.32
2019-03-03T08:34:34.268Z,981.33
2019-03-03T08:35:34.248Z,981.33
2019-03-03T08:36:34.236Z,981.39
2019-03-03T08:37:34.217Z,981.36
2019-03-03T08:38:34.208Z,981.33
2019-03-03T08:39:34.208Z,981.45
2019-03-03T08:40:34.284Z,981.42
2019-03-03T08:41:34.170Z,981.41
2019-03-03T08:42:34.171Z,981.31
2019-03-03T08:43:34.155Z,981.36
2019-03-03T08:44:34.133Z,981.45
2019-03-03T08:45:34.155Z,981.43
2019-03-03T08:46:34.122Z,981.36
2019-03-03T08:47:34.117Z,981.34
2019-03-03T08:48:34.088Z,981.30
2019-03-03T08:49:34.075Z,981.29
2019-03-03T08:50:34.063Z,981.35
2019-03-03T08:51:34.054Z,981.37
2019-03-03T08:52:34.066Z,981.27
2019-03-03T08:53:34.035Z,981.35
2019-03-03T08:54:34.056Z,981.36
2019-03-03T08:55:34.013Z,981.24
2019-03-03T08:56:34.008Z,981.28
2019-03-03T08:57:33.993Z,981.23
2019-03-03T08:58:34.009Z,981.28
2019-03-03T08:59:33.987Z,981.25
2019-03-03T09:00:33.963Z,981.21
2019-03-03T09:01:33.950Z,981.24
2019-03-03T09:02:33.931Z,981.15
2019-03-03T09:03:33.930Z,981.13
2019-03-03T09:04:33.941Z,981.11
2019-03-03T09:05:33.906Z,981.13
2019-03-03T09:06:33.902Z,981.15
2019-03-03T09:07:33.883Z,981.15
2019-03-03T09:08:33.886Z,981.12
2019-03-03T09:09:34.107Z,981.06
2019-03-03T09:10:34.846Z,981.05
2019-03-03T09:11:34.329Z,981.12
2019-03-03T09:12:34.329Z,981.13
2019-03-03T09:13:34.310Z,981.15
2019-03-03T09:14:34.298Z,981.16
2019-03-03T09:15:34.284Z,981.14
2019-03-03T09:16:34.814Z,981.09
2019-03-03T09:17:34.268Z,981.16
2019-03-03T09:18:34.265Z,981.14
2019-03-03T09:19:34.246Z,981.14
2019-03-03T09:20:34.239Z,981.09
2019-03-03T09:21:34.230Z,981.19
2019-03-03T09:22:34.725Z,981.19
2019-03-03T09:23:34.203Z,981.12
2019-03-03T09:24:34.195Z,981.13
2019-03-03T09:25:33.688Z,981.11
2019-03-03T09:26:33.680Z,981.07
2019-03-03T09:27:33.668Z,981.13
2019-03-03T09:28:33.674Z,981.17
2019-03-03T09:29:33.655Z,981.18
2019-03-03T09:30:33.658Z,981.09
2019-03-03T09:31:33.626Z,981.08
2019-03-03T09:32:33.744Z,981.10
2019-03-03T09:33:33.610Z,981.11
2019-03-03T09:34:33.610Z,981.07
2019-03-03T09:35:33.812Z,981.07
2019-03-03T09:36:33.603Z,981.11
2019-03-03T09:37:33.565Z,981.13
2019-03-03T09:38:33.549Z,981.12
2019-03-03T09:39:33.539Z,981.15
2019-03-03T09:40:33.639Z,981.17
2019-03-03T09:41:33.524Z,981.08
2019-03-03T09:42:33.505Z,981.06
2019-03-03T09:43:33.494Z,981.07
2019-03-03T09:44:33.485Z,981.00
2019-03-03T09:45:33.469Z,980.99
2019-03-03T09:46:33.524Z,981.00
2019-03-03T09:47:33.453Z,980.98
2019-03-03T09:48:33.443Z,980.94
2019-03-03T09:49:33.446Z,980.95
2019-03-03T09:50:33.430Z,980.98
2019-03-03T09:51:33.411Z,980.87
2019-03-03T09:52:33.418Z,981.02
2019-03-03T09:53:33.389Z,980.96
2019-03-03T09:54:33.380Z,980.92
2019-03-03T09:55:33.370Z,981.03
2019-03-03T09:56:33.413Z,980.98
2019-03-03T09:57:33.352Z,980.97
2019-03-03T09:58:33.356Z,980.94
2019-03-03T09:59:33.349Z,981.00
2019-03-03T10:00:33.360Z,980.98
2019-03-03T10:01:33.307Z,981.07
2019-03-03T10:02:33.310Z,981.06
2019-03-03T10:03:33.285Z,981.06
2019-03-03T10:04:33.363Z,981.05
2019-03-03T10:05:33.259Z,981.05
2019-03-03T10:06:33.247Z,981.01
2019-03-03T10:07:33.243Z,981.03
2019-03-03T10:08:33.243Z,981.01
2019-03-03T10:09:33.224Z,980.95
2019-03-03T10:10:33.222Z,981.03
2019-03-03T10:11:33.199Z,980.98
2019-03-03T10:12:33.226Z,981.02
2019-03-03T10:13:33.169Z,981.04
2019-03-03T10:14:33.160Z,981.02
2019-03-03T10:15:33.154Z,980.97
2019-03-03T10:16:33.158Z,980.94
2019-03-03T10:17:33.129Z,980.82
2019-03-03T10:18:33.122Z,980.80
2019-03-03T10:19:33.133Z,980.94
2019-03-03T10:20:33.096Z,980.93
2019-03-03T10:21:33.086Z,980.84
2019-03-03T10:22:33.106Z,980.95
2019-03-03T10:23:33.065Z,980.84
2019-03-03T10:24:33.055Z,980.85
2019-03-03T10:25:33.045Z,980.84
2019-03-03T10:26:35.008Z,980.82
2019-03-03T10:27:33.023Z,980.79
2019-03-03T10:28:33.026Z,980.79
2019-03-03T10:29:33.005Z,980.79
2019-03-03T10:30:32.994Z,980.75
2019-03-03T10:31:32.985Z,980.86
2019-03-03T10:32:32.982Z,980.73
2019-03-03T10:33:32.958Z,980.63
2019-03-03T10:34:33.046Z,980.83
2019-03-03T10:35:33.032Z,980.85
2019-03-03T10:36:32.927Z,980.87
2019-03-03T10:37:32.953Z,980.63
2019-03-03T10:38:36.015Z,980.84
2019-03-03T10:39:32.895Z,980.64
2019-03-03T10:40:32.899Z,980.64
2019-03-03T10:41:32.873Z,980.70
2019-03-03T10:42:32.866Z,980.77
2019-03-03T10:43:32.853Z,980.80
2019-03-03T10:44:32.889Z,980.81
2019-03-03T10:45:32.831Z,980.77
2019-03-03T10:46:32.921Z,980.80
2019-03-03T10:47:32.808Z,980.79
2019-03-03T10:48:32.799Z,980.70
2019-03-03T10:49:32.787Z,980.65
2019-03-03T10:50:32.777Z,980.65
2019-03-03T10:51:32.847Z,980.57
2019-03-03T10:52:32.767Z,980.73
2019-03-03T10:53:32.745Z,980.62
2019-03-03T10:54:32.735Z,980.59
2019-03-03T10:55:32.725Z,980.54
2019-03-03T10:56:32.710Z,980.54
2019-03-03T10:57:32.704Z,980.55
2019-03-03T10:58:32.707Z,980.52
2019-03-03T10:59:32.784Z,980.55
2019-03-03T11:00:32.671Z,980.58
2019-03-03T11:01:32.665Z,980.56
2019-03-03T11:02:32.991Z,980.55
2019-03-03T11:03:32.639Z,980.50
2019-03-03T11:04:32.648Z,980.53
2019-03-03T11:05:32.619Z,980.58
2019-03-03T11:06:32.607Z,980.58
2019-03-03T11:07:32.606Z,980.52
2019-03-03T11:08:32.601Z,980.50
2019-03-03T11:09:32.575Z,980.56
2019-03-03T11:10:32.582Z,980.50
2019-03-03T11:11:32.554Z,980.52
2019-03-03T11:12:32.541Z,980.50
2019-03-03T11:13:32.531Z,980.54
2019-03-03T11:14:32.525Z,980.47
2019-03-03T11:15:32.512Z,980.46
2019-03-03T11:16:32.515Z,980.36
2019-03-03T11:17:32.487Z,980.45
2019-03-03T11:18:32.486Z,980.40
2019-03-03T11:19:32.467Z,980.41
2019-03-03T11:20:32.462Z,980.32
2019-03-03T11:21:32.451Z,980.32
2019-03-03T11:22:32.454Z,980.31
2019-03-03T11:23:32.436Z,980.32
2019-03-03T11:24:32.413Z,980.29
2019-03-03T11:25:32.404Z,980.24
2019-03-03T11:26:32.394Z,980.23
2019-03-03T11:27:32.381Z,980.18
2019-03-03T11:28:32.384Z,980.14
2019-03-03T11:29:32.362Z,980.08
2019-03-03T11:30:32.350Z,980.03
2019-03-03T11:31:32.342Z,980.00
2019-03-03T11:32:32.332Z,980.05
2019-03-03T11:33:32.324Z,979.96
2019-03-03T11:34:32.326Z,979.86
2019-03-03T11:35:32.295Z,979.79
2019-03-03T11:36:32.302Z,979.79
2019-03-03T11:37:32.281Z,979.81
2019-03-03T11:38:32.299Z,979.81
2019-03-03T11:39:32.278Z,979.69
2019-03-03T11:40:32.262Z,979.69
2019-03-03T11:41:32.245Z,979.70
2019-03-03T11:42:32.222Z,979.66
2019-03-03T11:43:32.209Z,979.62
2019-03-03T11:44:32.199Z,979.65
2019-03-03T11:45:32.189Z,979.66
2019-03-03T11:46:32.193Z,979.67
2019-03-03T11:47:32.170Z,979.68
2019-03-03T11:48:32.162Z,979.64
2019-03-03T11:49:32.147Z,979.58
2019-03-03T11:50:32.157Z,979.63
2019-03-03T11:51:32.124Z,979.61
2019-03-03T11:52:32.132Z,979.67
2019-03-03T11:53:32.111Z,979.53
2019-03-03T11:54:32.098Z,979.59
2019-03-03T11:55:32.083Z,979.54
2019-03-03T11:56:32.077Z,979.61
2019-03-03T11:57:32.067Z,979.59
2019-03-03T11:58:32.164Z,979.59
2019-03-03T11:59:32.060Z,979.55
2019-03-03T12:00:32.032Z,979.61
2019-03-03T12:01:32.019Z,979.61
2019-03-03T12:02:32.683Z,979.60
2019-03-03T12:03:31.997Z,979.51
2019-03-03T12:04:32.004Z,979.53
2019-03-03T12:05:31.974Z,979.50
2019-03-03T12:06:31.965Z,979.48
2019-03-03T12:07:31.953Z,979.43
2019-03-03T12:08:31.945Z,979.45
2019-03-03T12:09:31.935Z,979.43
2019-03-03T12:10:31.938Z,979.39
2019-03-03T12:11:31.912Z,979.29
2019-03-03T12:12:31.902Z,979.18
2019-03-03T12:13:31.892Z,979.18
2019-03-03T12:14:31.879Z,979.15
2019-03-03T12:15:31.870Z,979.18
2019-03-03T12:16:31.880Z,979.21
2019-03-03T12:17:31.850Z,979.19
2019-03-03T12:18:31.847Z,979.12
2019-03-03T12:19:31.828Z,979.15
2019-03-03T12:20:31.817Z,979.13
2019-03-03T12:21:31.803Z,979.13
2019-03-03T12:22:31.917Z,979.06
2019-03-03T12:23:31.787Z,979.06
2019-03-03T12:24:31.780Z,979.05
2019-03-03T12:25:31.762Z,979.00
2019-03-03T12:26:31.751Z,979.06
2019-03-03T12:27:31.741Z,979.04
2019-03-03T12:28:31.748Z,978.99
2019-03-03T12:29:31.719Z,979.01